Airfield :







YOU CAN JOIN US ON...

 
LOGIN :

Register | Disclaimer

   EN    FR    IT 

 









Legend :    VFR   Marginal VFR   IFR   Intensive IFR   Very Intensive IFR
Visi :
Ceiling :
>= 8 km
>= 3000ft
5 to 8 km
1000 to 3000 ft
1500m to 5 km
500 to 1000 ft
800 to 1500m
200 to 500 ft
< 800m
< 200 ft
Symbols :   Thunderstorms  Fog  Heavy snow  Heavy precipitations  Wind > 20 kt






- Airport Elevation : 474 ft


KPTD - Potsdam Municipal-Damon field

CURRENT METAR :
  • 280955Z AUTO 25018G24KT 2 1/2SM -SN FEW009 SCT019 BKN027 M08/M11 A2953 RMK AO2 VIS 2V3

EXPIRED METARs :
  • 280935Z AUTO 25014G25KT 2 1/2SM -SN SCT010 BKN022 OVC031 M08/M11 A2952 RMK AO2
  • 280915Z AUTO 26017G27KT 1 3/4SM -SN SCT007 BKN013 OVC029 M08/M12 A2952 RMK AO2
  • 280855Z AUTO 25018G29KT 1 3/4SM -SN BKN003 OVC008 M08/M10 A2950 RMK AO2
  • 280835Z AUTO 26011KT 1 1/4SM -SN OVC003 M07/M09 A2949 RMK AO2
  • 280815Z AUTO 25012KT 1 1/4SM -SN OVC003 M07/M08 A2949 RMK AO2
  • 280755Z AUTO 25014G19KT 1SM -SN OVC003 M07/M08 A2948 RMK AO2
  • 280735Z AUTO 25017G28KT 1 1/2SM -SN BKN003 BKN007 OVC015 M07/M09 A2948 RMK AO2
  • 280715Z AUTO 25011G18KT 2SM -SN SCT003 BKN015 OVC021 M07/M08 A2948 RMK AO2

TAF N/A



MET'MAP, your aeronautical weather chart ! - Copyright ORBIFLY December 2007 - Disclaimer

ORBIFLY MET'MAP TEAM :

Programming & Development : Alexandra Zaïnal
Concept & original design : Baudouin d'Aumeries
Assistance for programming : Marc-Olivier Méhu
Technical & hardware support : Manuel Goepfert

Contact : metmap@orbifly.com




SOURCES & CREDITS :

   NOAA